Архив погоды в Белогорке

Метеограмма Белогорка
Среда, 16 Августа
Время местн. Темп Ветер Видим Явления Облачность нижн/средн/верх Атм. давл. Влжн Точка росы ВНГО R Сост. почвы Tg s
Напр Скр Прв ур.ст ур.м изм
15:00 +21.8° Ю 4 - 10 км - преимущественно облачно 762 769 -0.7 54% +12° более 2.5 км - - - -
12:00 +20.8° Ю,Ю-В 2 - 10 км - облачно с прояснениями 762 770 -0.5 54% +11.2° - - - - -
09:00 +16.8° В,Ю-В 1 - 10 км - переменная облачность 763 771 -0.5 69% +11.1° - 0 Влажная (без луж) - -
06:00 +4.2° штиль 0 - 10 км - облачно с прояснениями 763 772 0 99% +4° более 2.5 км - - - -
03:00 +4.8° штиль 0 - 50 км - ясно 763 772 0 99% +4.6° более 2.5 км - - - -
00:00 +7.1° штиль 0 - 50 км - переменная облачность 763 771 0 97% +6.7° более 2.5 км - - - -
Вторник, 15 Августа
Время местн. Темп Ветер Видим Явления Облачность нижн/средн/верх Атм. давл. Влжн Точка росы ВНГО R Сост. почвы Tg s
Напр Скр Прв ур.ст ур.м изм
21:00 +11.9° Ю-З 1 - 10 км - переменная облачность 763 771 +0.2 92% +10.7° более 2.5 км 0 - - -
18:00 +23° штиль 0 - 10 км - переменная облачность 763 771 -0.5 42% +9.4° 1 км - - - -
15:00 +21.3° Ю,Ю-З 2 - 10 км - переменная облачность 763 771 -0.2 40% +7.3° более 2.5 км - - - -
12:00 +19.6° З,Ю-З 2 - 10 км - преимущественно облачно 764 772 +0.3 53% +9.7° 1 км - - - -
09:00 +15.1° Ю-З 2 - 10 км - ясно 763 771 +0.8 82% +12° более 2.5 км 0 Влажная (без луж) +8° -
06:00 +7.6° штиль 0 - 10 км - незначительная облачность 763 771 +0.8 97% +7.2° более 2.5 км - - - -
03:00 +7.3° штиль 0 - более 50 км - ясно 762 770 +0.8 98% +7° более 2.5 км - - - -
00:00 +8.3° штиль 0 - 50 км - ясно 761 769 +1.3 92% +7° более 2.5 км - - - -
Понедельник, 14 Августа
Время местн. Темп Ветер Видим Явления Облачность нижн/средн/верх Атм. давл. Влжн Точка росы ВНГО R Сост. почвы Tg s
Напр Скр Прв ур.ст ур.м изм
21:00 +11.2° З 1 - 10 км - ясно 760 768 +1.3 83% +8.4° более 2.5 км 0 - - -
18:00 +18.9° С-З 3 - 10 км - переменная облачность 759 766 +1.1 43% +6.1° 1 км - - - -
15:00 +19.8° С-З 2 - 10 км - переменная облачность 757 765 +1.3 49% +8.7° 1 км - - - -
12:00 +18.8° З 2 - 10 км - преимущественно облачно 756 764 +1.6 71% +13.4° 600 м - - - -
09:00 +16.5° З 2 - 10 км - преимущественно облачно 755 763 +1.4 81% +13.3° 600 м 0 Влажная (без луж) - -
06:00 +14.3° Ю-З 3 - 10 км - преимущественно облачно 753 761 +1 93% +13.2° 600 м - - - -
03:00 +14.7° З,Ю-З 3 - более 50 км - преимущественно облачно 752 760 +1.2 93% +13.6° 600 м - - - -
00:00 +14.9° Ю-З 3 - 50 км - переменная облачность 751 759 +0.4 91% +13.5° - - - - -
Воскресенье, 13 Августа
Время местн. Темп Ветер Видим Явления Облачность нижн/средн/верх Атм. давл. Влжн Точка росы ВНГО R Сост. почвы Tg s
Напр Скр Прв ур.ст ур.м изм
21:00 +17.3° Ю-З 2 - 10 км - преимущественно облачно 751 759 +0.5 84% +14.6° - 1 - - -
18:00 +21.5° Ю-З 4 - 10 км - преимущественно облачно 750 758 +0.5 67% +15° 1 км - - - -
15:00 +21.9° З,Ю-З 5 - 10 км небо без изменений {ливневые осадки} преимущественно облачно 750 757 +0.3 72% +16.6° 600 м - - - -
12:00 +21.8° Ю 4 - 10 км небо без изменений {ливневые осадки} преимущественно облачно 749 757 +1.8 82% +18.6° 600 м - - - -